| Date | Time | Temp. (oF) | Dew Point (oF) | Rel. Hum. (%) | Press. (in.) | Wind Dir. | Wind Speed (mph) | Hourly Rainfall (in.) |
|
|---|---|---|---|---|---|---|---|---|---|
| 1 | 08/25 | 00:00 | 74 | 64 | 72 | 30.11 | NNE | 1 | 0.00 |
| 2 | 08/24 | 23:00 | 73 | 67 | 84 | 30.11 | NW | 0 | 0.00 |
| 3 | 08/24 | 22:00 | 75 | 68 | 79 | 30.10 | NW | 0 | 0.00 |
| 4 | 08/24 | 21:00 | 76 | 66 | 72 | 30.08 | NNW | 0 | 0.00 |
| 5 | 08/24 | 20:00 | 80 | 65 | 61 | 30.05 | NNW | 0 | 0.00 |
| 6 | 08/24 | 19:00 | 82 | 64 | 56 | 30.03 | NNE | 2 | 0.00 |
| 7 | 08/24 | 18:00 | 83 | 65 | 55 | 30.02 | NNE | 7 | 0.00 |
| 8 | 08/24 | 17:00 | 84 | 65 | 55 | 30.01 | NW | 10 | 0.00 |
| 9 | 08/24 | 16:00 | 84 | 65 | 54 | 30.03 | NNW | 6 | 0.00 |
| 10 | 08/24 | 15:00 | 84 | 67 | 58 | 30.04 | N | 7 | 0.00 |
| 11 | 08/24 | 14:00 | 84 | 68 | 60 | 30.04 | NW | 6 | 0.00 |
| 12 | 08/24 | 13:00 | 82 | 66 | 60 | 30.04 | NE | 4 | 0.00 |
| 13 | 08/24 | 12:00 | 80 | 67 | 65 | 30.05 | N | 5 | 0.00 |
| 14 | 08/24 | 11:00 | 76 | 66 | 72 | 30.07 | W | 2 | 0.00 |
| 15 | 08/24 | 10:00 | 74 | 66 | 77 | 30.08 | NW | 3 | 0.00 |
| 16 | 08/24 | 09:00 | 71 | 66 | 85 | 30.07 | N | 2 | 0.00 |
| 17 | 08/24 | 08:00 | 68 | 64 | 90 | 30.06 | WNW | 2 | 0.00 |
| 18 | 08/24 | 07:00 | 67 | 64 | 92 | 30.04 | W | 2 | 0.00 |
| 19 | 08/24 | 06:00 | 68 | 65 | 92 | 30.02 | WNW | 4 | 0.00 |
| 20 | 08/24 | 05:00 | 69 | 66 | 92 | 30.01 | NNW | 3 | 0.00 |
| 21 | 08/24 | 04:00 | 70 | 67 | 92 | 29.99 | NNW | 3 | 0.00 |
| 22 | 08/24 | 03:00 | 70 | 68 | 94 | 30.00 | NW | 6 | 0.00 |
| 23 | 08/24 | 02:00 | 71 | 69 | 95 | 29.99 | NNW | 2 | 0.00 |
| 24 | 08/24 | 01:00 | 71 | 69 | 95 | 29.99 | NNW | 3 | 0.00 |